Fjordprinsessen — LJVE — position and weather

sailwx.info

Track history (hours):
 
Tides and Currents Weather Stations Pressure Air Temp Water Temp Dewpoint Dewpoint Depression Visibility Wind Speed Wind Dir Waves Ship Positions

Fjordprinsessen

Last reported at 2016-Feb-10 21:33 UTC. Time now 2016-Feb-10 22:00 UTC.
Position N 67°17' E 014°22'.

Length 30 m; draft 2.5 m.

Type: High speed craft. MMSI: 259604000.

Date/timePositionNaut miles runAvg speedWind from/ knotsBaromVisibWave heightAir tempDewpointWater temp
2016-Feb-10 21:33N 67°17' E 014°22'6 5.9
2016-Feb-10 20:34N 67°15' E 014°09'8 8.0
2016-Feb-10 19:33N 67°08' E 013°58'1313.1
2016-Feb-10 18:33N 67°17' E 014°22'0 0.0
2016-Feb-10 17:33N 67°17' E 014°22'1212.2
2016-Feb-10 16:33N 67°13' E 013°52'7 6.8
2016-Feb-10 15:34N 67°08' E 014°02'1212.2
2016-Feb-10 14:33N 67°17' E 014°22'0 0.0
2016-Feb-10 13:34N 67°17' E 014°22'0 0.0
2016-Feb-10 12:33N 67°17' E 014°22'0 0.0
2016-Feb-10 11:33N 67°17' E 014°22'0 0.0
2016-Feb-10 10:33N 67°17' E 014°22'1 0.7
2016-Feb-10 09:33N 67°17' E 014°24'0 0.0
2016-Feb-10 08:33N 67°17' E 014°24'1 0.7
2016-Feb-10 07:33N 67°17' E 014°22'0 0.4
2016-Feb-10 06:33N 67°17' E 014°23'1312.7
2016-Feb-10 05:33N 67°07' E 014°02'1212.3
2016-Feb-10 04:33N 67°17' E 014°22'0 0.0
2016-Feb-10 03:31N 67°17' E 014°22'0 0.0
2016-Feb-10 02:31N 67°17' E 014°22'0 0.0
2016-Feb-10 01:31N 67°17' E 014°22'0 0.0
2016-Feb-10 00:31N 67°17' E 014°22'0 0.0
2016-Feb-09 23:31N 67°17' E 014°22'0 0.0
2016-Feb-09 22:31N 67°17' E 014°22'0 0.0
2016-Feb-09 21:31N 67°17' E 014°22'0 0.0
2016-Feb-09 20:31N 67°17' E 014°22'0 0.0
2016-Feb-09 19:31N 67°17' E 014°22'0 0.0
2016-Feb-09 18:31N 67°17' E 014°22'0 0.0
2016-Feb-09 17:31N 67°17' E 014°22'1515.4
2016-Feb-09 16:33N 67°19' E 013°44'1212.2
2016-Feb-09 15:34N 67°24' E 014°12'8 8.1
2016-Feb-09 14:33N 67°17' E 014°22'0 0.0
2016-Feb-09 13:33N 67°17' E 014°22'0 0.0
2016-Feb-09 12:33N 67°17' E 014°22'0 0.0
2016-Feb-09 11:33N 67°17' E 014°22'0 0.0
2016-Feb-09 10:33N 67°17' E 014°22'0 0.0
2016-Feb-09 09:33N 67°17' E 014°22'0 0.3
2016-Feb-09 08:34N 67°17' E 014°22'1413.3
2016-Feb-09 07:31N 67°20' E 013°47'1111.8
2016-Feb-09 06:33N 67°23' E 014°15'1716.7
2016-Feb-09 05:33N 67°07' E 014°02'1212.4
2016-Feb-09 04:34N 67°17' E 014°22'0 0.0
2016-Feb-09 03:31N 67°17' E 014°22'0 0.0
2016-Feb-09 02:31N 67°17' E 014°22'0 0.0
2016-Feb-09 01:34N 67°17' E 014°22'0 0.0
2016-Feb-09 00:33N 67°17' E 014°22'0 0.0
2016-Feb-08 23:33N 67°17' E 014°22'0 0.0
2016-Feb-08 22:33N 67°17' E 014°22'0 0.0
2016-Feb-08 21:33N 67°17' E 014°22'0 0.0
2016-Feb-08 20:33N 67°17' E 014°22'0 0.0
2016-Feb-08 19:30N 67°17' E 014°22'0 0.0
2016-Feb-08 18:33N 67°17' E 014°22'0 0.0
2016-Feb-08 17:33N 67°17' E 014°22'7 7.5
2016-Feb-08 16:34N 67°14' E 014°05'7 6.8
2016-Feb-08 15:33N 67°07' E 014°03'1312.7
2016-Feb-08 14:33N 67°17' E 014°23'0 0.4
2016-Feb-08 13:33N 67°17' E 014°22'0 0.0
2016-Feb-08 12:33N 67°17' E 014°22'0 0.0
2016-Feb-08 11:33N 67°17' E 014°22'6 5.6
2016-Feb-08 10:34N 67°15' E 014°09'5 5.2
2016-Feb-08 09:34N 67°10' E 014°04'10 9.8
2016-Feb-08 08:33N 67°17' E 014°22'0 0.0
2016-Feb-08 07:33N 67°17' E 014°22'0 0.0
2016-Feb-08 06:33N 67°17' E 014°22'1212.4
2016-Feb-08 05:33N 67°07' E 014°03'1211.8
2016-Feb-08 04:31N 67°17' E 014°22'0 0.0
2016-Feb-08 03:31N 67°17' E 014°22'0 0.0
2016-Feb-08 02:31N 67°17' E 014°22'0 0.0
2016-Feb-08 01:31N 67°17' E 014°22'0 0.0
2016-Feb-08 00:31N 67°17' E 014°22'0 0.0
2016-Feb-07 23:31N 67°17' E 014°22'0 0.0
2016-Feb-07 22:31N 67°17' E 014°22'0 0.0
2016-Feb-07 21:31N 67°17' E 014°22'2 1.8
2016-Feb-07 20:34N 67°16' E 014°19'1212.5
2016-Feb-07 19:34N 67°10' E 013°50'1414.2
2016-Feb-07 18:33N 67°17' E 014°22'8 8.1
2016-Feb-07 17:34N 67°24' E 014°12'1110.8
2016-Feb-07 16:33N 67°15' E 013°55'1110.4
2016-Feb-07 15:33N 67°17' E 014°22'0 0.0
2016-Feb-07 14:31N 67°17' E 014°22'0 0.0
2016-Feb-07 13:31N 67°17' E 014°22'0 0.0
2016-Feb-07 12:31N 67°17' E 014°22'0 0.0
2016-Feb-07 11:31N 67°17' E 014°22'0 0.0
2016-Feb-07 10:31N 67°17' E 014°22'0 0.0
2016-Feb-07 09:31N 67°17' E 014°22'0 0.0
2016-Feb-07 08:31N 67°17' E 014°22'0 0.0
2016-Feb-07 07:31N 67°17' E 014°22'0 0.0
2016-Feb-07 06:31N 67°17' E 014°22'0 0.0
2016-Feb-07 05:31N 67°17' E 014°22'0 0.0
2016-Feb-07 04:31N 67°17' E 014°22'0 0.0
2016-Feb-07 03:31N 67°17' E 014°22'0 0.0
2016-Feb-07 02:31N 67°17' E 014°22'0 0.0
2016-Feb-07 01:31N 67°17' E 014°22'0 0.0
2016-Feb-07 00:31N 67°17' E 014°22'0 0.0
2016-Feb-06 23:31N 67°17' E 014°22'0 0.0
2016-Feb-06 22:31N 67°17' E 014°22'0 0.0
2016-Feb-06 21:31N 67°17' E 014°22'0 0.0
2016-Feb-06 20:31N 67°17' E 014°22'0 0.0
2016-Feb-06 19:31N 67°17' E 014°22'0 0.0
2016-Feb-06 18:31N 67°17' E 014°22'0 0.0
2016-Feb-06 17:31N 67°17' E 014°22'1111.4
2016-Feb-06 16:33N 67°25' E 014°03'1110.8
2016-Feb-06 15:34N 67°17' E 014°22'1514.8
2016-Feb-06 14:34N 67°10' E 013°48'1110.6
2016-Feb-06 13:34N 67°14' E 014°13'4 4.5
2016-Feb-06 12:33N 67°17' E 014°22'0 0.0
2016-Feb-06 11:33N 67°17' E 014°22'0 0.4
2016-Feb-06 10:34N 67°17' E 014°23'1312.5
2016-Feb-06 09:31N 67°24' E 013°54'1010.3
2016-Feb-06 08:34N 67°17' E 014°10'1010.3
2016-Feb-06 07:34N 67°07' E 014°00'1212.5
2016-Feb-06 06:34N 67°17' E 014°21'1 0.7
2016-Feb-06 05:33N 67°17' E 014°22'0 0.0
2016-Feb-06 04:33N 67°17' E 014°22'0 0.0
2016-Feb-06 03:33N 67°17' E 014°22'0 0.0
2016-Feb-06 02:33N 67°17' E 014°22'0 0.0
2016-Feb-06 01:33N 67°17' E 014°22'0 0.0
2016-Feb-06 00:33N 67°17' E 014°22'0 0.0
2016-Feb-05 23:33N 67°17' E 014°22'0 0.0
2016-Feb-05 22:33N 67°17' E 014°22'0 0.0
2016-Feb-05 21:33N 67°17' E 014°22'0 0.0
2016-Feb-05 20:33N 67°17' E 014°22'0 0.0
2016-Feb-05 19:33N 67°17' E 014°22'0 0.0
2016-Feb-05 18:32N 67°17' E 014°22'0 0.0
2016-Feb-05 17:32N 67°17' E 014°22'4 4.1
2016-Feb-05 16:33N 67°20' E 014°17'6 6.0
2016-Feb-05 15:33N 67°25' E 014°06'1010.0
2016-Feb-05 14:34N 67°17' E 014°23'1515.3
2016-Feb-05 13:34N 67°18' E 013°43'1110.7
2016-Feb-05 12:33N 67°25' E 014°06'1010.1
2016-Feb-05 11:34N 67°17' E 014°22'0 0.0
2016-Feb-05 10:33N 67°17' E 014°22'0 0.0
2016-Feb-05 09:33N 67°17' E 014°22'0 0.0
2016-Feb-05 08:32N 67°17' E 014°22'0 0.0
2016-Feb-05 07:32N 67°17' E 014°22'0 0.0
2016-Feb-05 06:32N 67°17' E 014°22'1212.8
2016-Feb-05 05:33N 67°07' E 014°02'1212.4
2016-Feb-05 04:33N 67°17' E 014°22'0 0.0
2016-Feb-05 03:33N 67°17' E 014°22'0 0.0
2016-Feb-05 02:33N 67°17' E 014°22'0 0.0
2016-Feb-05 01:33N 67°17' E 014°22'0 0.0
2016-Feb-05 00:33N 67°17' E 014°22'0 0.0
2016-Feb-04 23:34N 67°17' E 014°22'0 0.0
2016-Feb-04 22:33N 67°17' E 014°22'0 0.0
2016-Feb-04 21:33N 67°17' E 014°22'9 9.5
2016-Feb-04 20:34N 67°13' E 014°00'6 5.9
2016-Feb-04 19:34N 67°07' E 014°03'1212.3
2016-Feb-04 18:33N 67°17' E 014°22'0 0.0
2016-Feb-04 17:33N 67°17' E 014°22'0 0.3
2016-Feb-04 16:34N 67°17' E 014°22'9 9.3
2016-Feb-04 15:33N 67°25' E 014°07'10 9.6
2016-Feb-04 14:33N 67°17' E 014°22'1514.0
2016-Feb-04 13:29N 67°18' E 013°43'1314.2
2016-Feb-04 12:34N 67°23' E 014°15'7 6.9
2016-Feb-04 11:33N 67°17' E 014°23'9 8.7
2016-Feb-04 10:33N 67°16' E 014°00'7 7.1
2016-Feb-04 09:34N 67°09' E 014°03'1110.7
2016-Feb-04 08:34N 67°17' E 014°22'0 0.0
2016-Feb-04 07:34N 67°17' E 014°22'0 0.0
2016-Feb-04 06:34N 67°17' E 014°22'1212.4
2016-Feb-04 05:33N 67°07' E 014°02'1212.4
2016-Feb-04 04:33N 67°17' E 014°22'0 0.0
2016-Feb-04 03:31N 67°17' E 014°22'0 0.0
2016-Feb-04 02:31N 67°17' E 014°22'0 0.0
2016-Feb-04 01:31N 67°17' E 014°22'0 0.0
2016-Feb-04 00:31N 67°17' E 014°22'0 0.0
2016-Feb-03 23:31N 67°17' E 014°22'0 0.0
2016-Feb-03 22:31N 67°17' E 014°22'0 0.0
2016-Feb-03 21:31N 67°17' E 014°22'0 0.0
2016-Feb-03 20:34N 67°17' E 014°22'1212.3
2016-Feb-03 19:34N 67°07' E 014°03'1212.3
2016-Feb-03 18:34N 67°17' E 014°22'0 0.1
2016-Feb-03 17:33N 67°17' E 014°22'1312.5
2016-Feb-03 16:33N 67°13' E 013°52'7 7.1
2016-Feb-03 15:33N 67°07' E 014°03'1312.8
2016-Feb-03 14:33N 67°17' E 014°23'0 0.5
2016-Feb-03 13:33N 67°17' E 014°22'0 0.0
2016-Feb-03 12:33N 67°17' E 014°22'0 0.0
2016-Feb-03 11:33N 67°17' E 014°22'0 0.0
2016-Feb-03 10:33N 67°17' E 014°22'0 0.0
2016-Feb-03 09:33N 67°17' E 014°22'0 0.0
2016-Feb-03 08:33N 67°17' E 014°22'0 0.0
2016-Feb-03 07:33N 67°17' E 014°22'0 0.0
2016-Feb-03 06:34N 67°17' E 014°22'1212.3
2016-Feb-03 05:33N 67°07' E 014°03'1211.9
2016-Feb-03 04:31N 67°17' E 014°22'0 0.0
2016-Feb-03 03:31N 67°17' E 014°22'0 0.0
2016-Feb-03 02:31N 67°17' E 014°22'0 0.0
2016-Feb-03 01:31N 67°17' E 014°22'0 0.0
2016-Feb-03 00:31N 67°17' E 014°22'0 0.0
2016-Feb-02 23:31N 67°17' E 014°22'0 0.0
2016-Feb-02 22:31N 67°17' E 014°22'0 0.0
2016-Feb-02 21:31N 67°17' E 014°22'0 0.0
2016-Feb-02 20:31N 67°17' E 014°22'0 0.0
2016-Feb-02 19:31N 67°17' E 014°22'0 0.0
2016-Feb-02 18:28N 67°17' E 014°22'0 0.2
2016-Feb-02 17:33N 67°17' E 014°23'1514.8
2016-Feb-02 16:32N 67°18' E 013°43'1313.5
2016-Feb-02 15:34N 67°23' E 014°14'7 7.1
2016-Feb-02 14:33N 67°17' E 014°22'0 0.0
2016-Feb-02 13:33N 67°17' E 014°22'0 0.0
2016-Feb-02 12:33N 67°17' E 014°22'0 0.0
2016-Feb-02 11:33N 67°17' E 014°22'0 0.0
2016-Feb-02 10:33N 67°17' E 014°22'0 0.0
2016-Feb-02 09:33N 67°17' E 014°22'0 0.0
2016-Feb-02 08:33N 67°17' E 014°22'1412.0
2016-Feb-02 07:26N 67°23' E 013°51'910.3
2016-Feb-02 06:33N 67°23' E 014°15'1716.6
2016-Feb-02 05:33N 67°07' E 014°03'1212.3
2016-Feb-02 04:33N 67°17' E 014°22'0 0.0
2016-Feb-02 03:32N 67°17' E 014°22'0 0.0
2016-Feb-02 02:32N 67°17' E 014°22'0 0.0
2016-Feb-02 01:32N 67°17' E 014°22'0 0.0
2016-Feb-02 00:32N 67°17' E 014°22'0 0.0
2016-Feb-01 23:32N 67°17' E 014°22'0 0.0
2016-Feb-01 22:32N 67°17' E 014°22'0 0.0
2016-Feb-01 21:32N 67°17' E 014°22'0 0.0
2016-Feb-01 20:29N 67°17' E 014°22'0 0.0
2016-Feb-01 19:32N 67°17' E 014°22'0 0.0
2016-Feb-01 18:32N 67°17' E 014°22'0 0.0
2016-Feb-01 17:32N 67°17' E 014°22'8 8.0
2016-Feb-01 16:34N 67°13' E 014°05'6 5.8
2016-Feb-01 15:34N 67°07' E 014°03'1312.9
2016-Feb-01 14:34N 67°17' E 014°24'1 0.6
2016-Feb-01 13:33N 67°17' E 014°22'0 0.0
2016-Feb-01 12:33N 67°17' E 014°22'0 0.0
2016-Feb-01 11:33N 67°17' E 014°22'9 9.0
2016-Feb-01 10:34N 67°16' E 013°59'7 6.8
2016-Feb-01 09:34N 67°09' E 014°02'1111.1
2016-Feb-01 08:33N 67°17' E 014°22'0 0.0
2016-Feb-01 07:33N 67°17' E 014°22'0 0.0
2016-Feb-01 06:33N 67°17' E 014°22'1212.3
2016-Feb-01 05:33N 67°07' E 014°02'1212.3
2016-Feb-01 04:33N 67°17' E 014°22'0 0.0
2016-Feb-01 03:31N 67°17' E 014°22'0 0.0
2016-Feb-01 02:31N 67°17' E 014°22'0 0.0
2016-Feb-01 01:31N 67°17' E 014°22'0 0.0
2016-Feb-01 00:31N 67°17' E 014°22'0 0.0
2016-Jan-31 23:31N 67°17' E 014°22'0 0.0
2016-Jan-31 22:31N 67°17' E 014°22'  
Track history (hours):
 
Tides and Currents Weather Stations Pressure Air Temp Water Temp Dewpoint Dewpoint Depression Visibility Wind Speed Wind Dir Waves Ship Positions

Fjordprinsessen

Last reported at 2016-Feb-10 21:33 UTC. Time now 2016-Feb-10 22:00 UTC.
Position N 67°17' E 014°22'.

Length 30 m; draft 2.5 m.

Type: High speed craft. MMSI: 259604000.

Date/timePositionNaut miles runAvg speedWind from/ knotsBaromVisibWave heightAir tempDewpointWater temp
2016-Feb-10 21:33N 67°17' E 014°22'6 5.9
2016-Feb-10 20:34N 67°15' E 014°09'8 8.0
2016-Feb-10 19:33N 67°08' E 013°58'1313.1
2016-Feb-10 18:33N 67°17' E 014°22'0 0.0
2016-Feb-10 17:33N 67°17' E 014°22'1212.2
2016-Feb-10 16:33N 67°13' E 013°52'7 6.8
2016-Feb-10 15:34N 67°08' E 014°02'1212.2
2016-Feb-10 14:33N 67°17' E 014°22'0 0.0
2016-Feb-10 13:34N 67°17' E 014°22'0 0.0
2016-Feb-10 12:33N 67°17' E 014°22'0 0.0
2016-Feb-10 11:33N 67°17' E 014°22'0 0.0
2016-Feb-10 10:33N 67°17' E 014°22'1 0.7
2016-Feb-10 09:33N 67°17' E 014°24'0 0.0
2016-Feb-10 08:33N 67°17' E 014°24'1 0.7
2016-Feb-10 07:33N 67°17' E 014°22'0 0.4
2016-Feb-10 06:33N 67°17' E 014°23'1312.7
2016-Feb-10 05:33N 67°07' E 014°02'1212.3
2016-Feb-10 04:33N 67°17' E 014°22'0 0.0
2016-Feb-10 03:31N 67°17' E 014°22'0 0.0
2016-Feb-10 02:31N 67°17' E 014°22'0 0.0
2016-Feb-10 01:31N 67°17' E 014°22'0 0.0
2016-Feb-10 00:31N 67°17' E 014°22'0 0.0
2016-Feb-09 23:31N 67°17' E 014°22'0 0.0
2016-Feb-09 22:31N 67°17' E 014°22'0 0.0
2016-Feb-09 21:31N 67°17' E 014°22'0 0.0
2016-Feb-09 20:31N 67°17' E 014°22'0 0.0
2016-Feb-09 19:31N 67°17' E 014°22'0 0.0
2016-Feb-09 18:31N 67°17' E 014°22'0 0.0
2016-Feb-09 17:31N 67°17' E 014°22'1515.4
2016-Feb-09 16:33N 67°19' E 013°44'1212.2
2016-Feb-09 15:34N 67°24' E 014°12'8 8.1
2016-Feb-09 14:33N 67°17' E 014°22'0 0.0
2016-Feb-09 13:33N 67°17' E 014°22'0 0.0
2016-Feb-09 12:33N 67°17' E 014°22'0 0.0
2016-Feb-09 11:33N 67°17' E 014°22'0 0.0
2016-Feb-09 10:33N 67°17' E 014°22'0 0.0
2016-Feb-09 09:33N 67°17' E 014°22'0 0.3
2016-Feb-09 08:34N 67°17' E 014°22'1413.3
2016-Feb-09 07:31N 67°20' E 013°47'1111.8
2016-Feb-09 06:33N 67°23' E 014°15'1716.7
2016-Feb-09 05:33N 67°07' E 014°02'1212.4
2016-Feb-09 04:34N 67°17' E 014°22'0 0.0
2016-Feb-09 03:31N 67°17' E 014°22'0 0.0
2016-Feb-09 02:31N 67°17' E 014°22'0 0.0
2016-Feb-09 01:34N 67°17' E 014°22'0 0.0
2016-Feb-09 00:33N 67°17' E 014°22'0 0.0
2016-Feb-08 23:33N 67°17' E 014°22'0 0.0
2016-Feb-08 22:33N 67°17' E 014°22'0 0.0
2016-Feb-08 21:33N 67°17' E 014°22'0 0.0
2016-Feb-08 20:33N 67°17' E 014°22'0 0.0
2016-Feb-08 19:30N 67°17' E 014°22'0 0.0
2016-Feb-08 18:33N 67°17' E 014°22'0 0.0
2016-Feb-08 17:33N 67°17' E 014°22'7 7.5
2016-Feb-08 16:34N 67°14' E 014°05'7 6.8
2016-Feb-08 15:33N 67°07' E 014°03'1312.7
2016-Feb-08 14:33N 67°17' E 014°23'0 0.4
2016-Feb-08 13:33N 67°17' E 014°22'0 0.0
2016-Feb-08 12:33N 67°17' E 014°22'0 0.0
2016-Feb-08 11:33N 67°17' E 014°22'6 5.6
2016-Feb-08 10:34N 67°15' E 014°09'5 5.2
2016-Feb-08 09:34N 67°10' E 014°04'10 9.8
2016-Feb-08 08:33N 67°17' E 014°22'0 0.0
2016-Feb-08 07:33N 67°17' E 014°22'0 0.0
2016-Feb-08 06:33N 67°17' E 014°22'1212.4
2016-Feb-08 05:33N 67°07' E 014°03'1211.8
2016-Feb-08 04:31N 67°17' E 014°22'0 0.0
2016-Feb-08 03:31N 67°17' E 014°22'0 0.0
2016-Feb-08 02:31N 67°17' E 014°22'0 0.0
2016-Feb-08 01:31N 67°17' E 014°22'0 0.0
2016-Feb-08 00:31N 67°17' E 014°22'0 0.0
2016-Feb-07 23:31N 67°17' E 014°22'0 0.0
2016-Feb-07 22:31N 67°17' E 014°22'0 0.0
2016-Feb-07 21:31N 67°17' E 014°22'2 1.8
2016-Feb-07 20:34N 67°16' E 014°19'1212.5
2016-Feb-07 19:34N 67°10' E 013°50'1414.2
2016-Feb-07 18:33N 67°17' E 014°22'8 8.1
2016-Feb-07 17:34N 67°24' E 014°12'1110.8
2016-Feb-07 16:33N 67°15' E 013°55'1110.4
2016-Feb-07 15:33N 67°17' E 014°22'0 0.0
2016-Feb-07 14:31N 67°17' E 014°22'0 0.0
2016-Feb-07 13:31N 67°17' E 014°22'0 0.0
2016-Feb-07 12:31N 67°17' E 014°22'0 0.0
2016-Feb-07 11:31N 67°17' E 014°22'0 0.0
2016-Feb-07 10:31N 67°17' E 014°22'0 0.0
2016-Feb-07 09:31N 67°17' E 014°22'0 0.0
2016-Feb-07 08:31N 67°17' E 014°22'0 0.0
2016-Feb-07 07:31N 67°17' E 014°22'0 0.0
2016-Feb-07 06:31N 67°17' E 014°22'0 0.0
2016-Feb-07 05:31N 67°17' E 014°22'0 0.0
2016-Feb-07 04:31N 67°17' E 014°22'0 0.0
2016-Feb-07 03:31N 67°17' E 014°22'0 0.0
2016-Feb-07 02:31N 67°17' E 014°22'0 0.0
2016-Feb-07 01:31N 67°17' E 014°22'0 0.0
2016-Feb-07 00:31N 67°17' E 014°22'0 0.0
2016-Feb-06 23:31N 67°17' E 014°22'0 0.0
2016-Feb-06 22:31N 67°17' E 014°22'0 0.0
2016-Feb-06 21:31N 67°17' E 014°22'0 0.0
2016-Feb-06 20:31N 67°17' E 014°22'0 0.0
2016-Feb-06 19:31N 67°17' E 014°22'0 0.0
2016-Feb-06 18:31N 67°17' E 014°22'0 0.0
2016-Feb-06 17:31N 67°17' E 014°22'1111.4
2016-Feb-06 16:33N 67°25' E 014°03'1110.8
2016-Feb-06 15:34N 67°17' E 014°22'1514.8
2016-Feb-06 14:34N 67°10' E 013°48'1110.6
2016-Feb-06 13:34N 67°14' E 014°13'4 4.5
2016-Feb-06 12:33N 67°17' E 014°22'0 0.0
2016-Feb-06 11:33N 67°17' E 014°22'0 0.4
2016-Feb-06 10:34N 67°17' E 014°23'1312.5
2016-Feb-06 09:31N 67°24' E 013°54'1010.3
2016-Feb-06 08:34N 67°17' E 014°10'1010.3
2016-Feb-06 07:34N 67°07' E 014°00'1212.5
2016-Feb-06 06:34N 67°17' E 014°21'1 0.7
2016-Feb-06 05:33N 67°17' E 014°22'0 0.0
2016-Feb-06 04:33N 67°17' E 014°22'0 0.0
2016-Feb-06 03:33N 67°17' E 014°22'0 0.0
2016-Feb-06 02:33N 67°17' E 014°22'0 0.0
2016-Feb-06 01:33N 67°17' E 014°22'0 0.0
2016-Feb-06 00:33N 67°17' E 014°22'0 0.0
2016-Feb-05 23:33N 67°17' E 014°22'0 0.0
2016-Feb-05 22:33N 67°17' E 014°22'0 0.0
2016-Feb-05 21:33N 67°17' E 014°22'0 0.0
2016-Feb-05 20:33N 67°17' E 014°22'0 0.0
2016-Feb-05 19:33N 67°17' E 014°22'0 0.0
2016-Feb-05 18:32N 67°17' E 014°22'0 0.0
2016-Feb-05 17:32N 67°17' E 014°22'4 4.1
2016-Feb-05 16:33N 67°20' E 014°17'6 6.0
2016-Feb-05 15:33N 67°25' E 014°06'1010.0
2016-Feb-05 14:34N 67°17' E 014°23'1515.3
2016-Feb-05 13:34N 67°18' E 013°43'1110.7
2016-Feb-05 12:33N 67°25' E 014°06'1010.1
2016-Feb-05 11:34N 67°17' E 014°22'0 0.0
2016-Feb-05 10:33N 67°17' E 014°22'0 0.0
2016-Feb-05 09:33N 67°17' E 014°22'0 0.0
2016-Feb-05 08:32N 67°17' E 014°22'0 0.0
2016-Feb-05 07:32N 67°17' E 014°22'0 0.0
2016-Feb-05 06:32N 67°17' E 014°22'1212.8
2016-Feb-05 05:33N 67°07' E 014°02'1212.4
2016-Feb-05 04:33N 67°17' E 014°22'0 0.0
2016-Feb-05 03:33N 67°17' E 014°22'0 0.0
2016-Feb-05 02:33N 67°17' E 014°22'0 0.0
2016-Feb-05 01:33N 67°17' E 014°22'0 0.0
2016-Feb-05 00:33N 67°17' E 014°22'0 0.0
2016-Feb-04 23:34N 67°17' E 014°22'0 0.0
2016-Feb-04 22:33N 67°17' E 014°22'0 0.0
2016-Feb-04 21:33N 67°17' E 014°22'9 9.5
2016-Feb-04 20:34N 67°13' E 014°00'6 5.9
2016-Feb-04 19:34N 67°07' E 014°03'1212.3
2016-Feb-04 18:33N 67°17' E 014°22'0 0.0
2016-Feb-04 17:33N 67°17' E 014°22'0 0.3
2016-Feb-04 16:34N 67°17' E 014°22'9 9.3
2016-Feb-04 15:33N 67°25' E 014°07'10 9.6
2016-Feb-04 14:33N 67°17' E 014°22'1514.0
2016-Feb-04 13:29N 67°18' E 013°43'1314.2
2016-Feb-04 12:34N 67°23' E 014°15'7 6.9
2016-Feb-04 11:33N 67°17' E 014°23'9 8.7
2016-Feb-04 10:33N 67°16' E 014°00'7 7.1
2016-Feb-04 09:34N 67°09' E 014°03'1110.7
2016-Feb-04 08:34N 67°17' E 014°22'0 0.0
2016-Feb-04 07:34N 67°17' E 014°22'0 0.0
2016-Feb-04 06:34N 67°17' E 014°22'1212.4
2016-Feb-04 05:33N 67°07' E 014°02'1212.4
2016-Feb-04 04:33N 67°17' E 014°22'0 0.0
2016-Feb-04 03:31N 67°17' E 014°22'0 0.0
2016-Feb-04 02:31N 67°17' E 014°22'0 0.0
2016-Feb-04 01:31N 67°17' E 014°22'0 0.0
2016-Feb-04 00:31N 67°17' E 014°22'0 0.0
2016-Feb-03 23:31N 67°17' E 014°22'0 0.0
2016-Feb-03 22:31N 67°17' E 014°22'0 0.0
2016-Feb-03 21:31N 67°17' E 014°22'0 0.0
2016-Feb-03 20:34N 67°17' E 014°22'1212.3
2016-Feb-03 19:34N 67°07' E 014°03'1212.3
2016-Feb-03 18:34N 67°17' E 014°22'0 0.1
2016-Feb-03 17:33N 67°17' E 014°22'1312.5
2016-Feb-03 16:33N 67°13' E 013°52'7 7.1
2016-Feb-03 15:33N 67°07' E 014°03'1312.8
2016-Feb-03 14:33N 67°17' E 014°23'0 0.5
2016-Feb-03 13:33N 67°17' E 014°22'0 0.0
2016-Feb-03 12:33N 67°17' E 014°22'0 0.0
2016-Feb-03 11:33N 67°17' E 014°22'0 0.0
2016-Feb-03 10:33N 67°17' E 014°22'0 0.0
2016-Feb-03 09:33N 67°17' E 014°22'0 0.0
2016-Feb-03 08:33N 67°17' E 014°22'0 0.0
2016-Feb-03 07:33N 67°17' E 014°22'0 0.0
2016-Feb-03 06:34N 67°17' E 014°22'1212.3
2016-Feb-03 05:33N 67°07' E 014°03'1211.9
2016-Feb-03 04:31N 67°17' E 014°22'0 0.0
2016-Feb-03 03:31N 67°17' E 014°22'0 0.0
2016-Feb-03 02:31N 67°17' E 014°22'0 0.0
2016-Feb-03 01:31N 67°17' E 014°22'0 0.0
2016-Feb-03 00:31N 67°17' E 014°22'0 0.0
2016-Feb-02 23:31N 67°17' E 014°22'0 0.0
2016-Feb-02 22:31N 67°17' E 014°22'0 0.0
2016-Feb-02 21:31N 67°17' E 014°22'0 0.0
2016-Feb-02 20:31N 67°17' E 014°22'0 0.0
2016-Feb-02 19:31N 67°17' E 014°22'0 0.0
2016-Feb-02 18:28N 67°17' E 014°22'0 0.2
2016-Feb-02 17:33N 67°17' E 014°23'1514.8
2016-Feb-02 16:32N 67°18' E 013°43'1313.5
2016-Feb-02 15:34N 67°23' E 014°14'7 7.1
2016-Feb-02 14:33N 67°17' E 014°22'0 0.0
2016-Feb-02 13:33N 67°17' E 014°22'0 0.0
2016-Feb-02 12:33N 67°17' E 014°22'0 0.0
2016-Feb-02 11:33N 67°17' E 014°22'0 0.0
2016-Feb-02 10:33N 67°17' E 014°22'0 0.0
2016-Feb-02 09:33N 67°17' E 014°22'0 0.0
2016-Feb-02 08:33N 67°17' E 014°22'1412.0
2016-Feb-02 07:26N 67°23' E 013°51'910.3
2016-Feb-02 06:33N 67°23' E 014°15'1716.6
2016-Feb-02 05:33N 67°07' E 014°03'1212.3
2016-Feb-02 04:33N 67°17' E 014°22'0 0.0
2016-Feb-02 03:32N 67°17' E 014°22'0 0.0
2016-Feb-02 02:32N 67°17' E 014°22'0 0.0
2016-Feb-02 01:32N 67°17' E 014°22'0 0.0
2016-Feb-02 00:32N 67°17' E 014°22'0 0.0
2016-Feb-01 23:32N 67°17' E 014°22'0 0.0
2016-Feb-01 22:32N 67°17' E 014°22'0 0.0
2016-Feb-01 21:32N 67°17' E 014°22'0 0.0
2016-Feb-01 20:29N 67°17' E 014°22'0 0.0
2016-Feb-01 19:32N 67°17' E 014°22'0 0.0
2016-Feb-01 18:32N 67°17' E 014°22'0 0.0
2016-Feb-01 17:32N 67°17' E 014°22'8 8.0
2016-Feb-01 16:34N 67°13' E 014°05'6 5.8
2016-Feb-01 15:34N 67°07' E 014°03'1312.9
2016-Feb-01 14:34N 67°17' E 014°24'1 0.6
2016-Feb-01 13:33N 67°17' E 014°22'0 0.0
2016-Feb-01 12:33N 67°17' E 014°22'0 0.0
2016-Feb-01 11:33N 67°17' E 014°22'9 9.0
2016-Feb-01 10:34N 67°16' E 013°59'7 6.8
2016-Feb-01 09:34N 67°09' E 014°02'1111.1
2016-Feb-01 08:33N 67°17' E 014°22'0 0.0
2016-Feb-01 07:33N 67°17' E 014°22'0 0.0
2016-Feb-01 06:33N 67°17' E 014°22'1212.3
2016-Feb-01 05:33N 67°07' E 014°02'1212.3
2016-Feb-01 04:33N 67°17' E 014°22'0 0.0
2016-Feb-01 03:31N 67°17' E 014°22'0 0.0
2016-Feb-01 02:31N 67°17' E 014°22'0 0.0
2016-Feb-01 01:31N 67°17' E 014°22'0 0.0
2016-Feb-01 00:31N 67°17' E 014°22'0 0.0
2016-Jan-31 23:31N 67°17' E 014°22'0 0.0
2016-Jan-31 22:31N 67°17' E 014°22'  

Dump ship's entire track history